Storden, Minnesota
Current Conditions -  °F | °C
As of 8:33 PM on Wednesday 22 Oct 2014 (Local Time) from KMWM Reporting Station
Drizzle Drizzle  
Wind Chill: 61°   Ceiling: 8000
Heat Index: 61°   Visibility: 10mi
Dew Point: 48°   Wind: 17mph
Humidity: 63%   Direction: 160°SSE
Pressure: 29.99"   Gusts: 24mph
Location:  44.04°N, 95.32°W
Report Text: KMWM 230133Z AUTO 16015G21KT 10SM DZ BKN080 BKN090 OVC110 16/09 A2999 RMK AO2
Loading
Personal Weather Stations






























Interactive Weather Map
Tropical Storm Tracking
New forecast layout! Learn more

10-Day Weather Forecast

Advertisements
Track Severe Weather on mobile